Time;durP1;ratioP1;P1;durP2;ratioP2;P2;SDS_P1;SDS_P2;PMS_P1;PMS_P2;Temp;Humidity;BMP_temperature;BMP_pressure;BME280_temperature;BME280_humidity;BME280_pressure;Samples;Min_cycle;Max_cycle;Signal;HPM_P1;HPM_P2
2021/06/01 06:27:56;;;;;;;5.72;1.95;;;;;;;13.79;59.06;100516.20;1837243;76;23207;-71
2021/06/01 06:30:24;;;;;;;10.00;3.62;;;;;;;13.70;57.67;100510.22;1822634;78;20985;-72
2021/06/01 06:32:52;;;;;;;3.92;2.37;;;;;;;13.58;58.52;100512.28;1844896;77;21066;-75
2021/06/01 06:35:18;;;;;;;11.90;2.37;;;;;;;13.40;58.70;100510.11;1854808;77;20883;-72
2021/06/01 06:37:46;;;;;;;8.15;2.60;;;;;;;13.22;58.50;100508.43;1854900;77;20989;-73
2021/06/01 06:40:14;;;;;;;4.80;2.50;;;;;;;13.08;58.84;100515.95;1854719;77;21542;-77
2021/06/01 06:42:42;;;;;;;5.00;2.05;;;;;;;12.98;59.17;100511.78;1854953;77;20846;-76
2021/06/01 06:45:11;;;;;;;4.53;2.30;;;;;;;12.93;59.09;100514.19;1854981;77;21491;-76
2021/06/01 06:50:15;;;;;;;7.95;1.90;;;;;;;13.13;59.35;100510.91;1854910;77;20981;-75
2021/06/01 06:52:42;;;;;;;6.35;2.00;;;;;;;13.32;59.04;100509.74;1854670;77;21625;-74
2021/06/01 06:55:10;;;;;;;5.42;2.15;;;;;;;13.40;58.34;100508.77;1821998;77;21542;-77
2021/06/01 06:57:39;;;;;;;8.00;1.92;;;;;;;13.43;58.37;100504.38;1854517;77;21274;-75
2021/06/01 07:00:17;;;;;;;7.90;2.00;;;;;;;13.44;58.56;100516.72;1854743;77;20946;-75
2021/06/01 07:03:04;;;;;;;7.42;2.00;;;;;;;13.44;57.69;100515.37;1854924;77;21029;-76
2021/06/01 07:05:36;;;;;;;5.50;1.80;;;;;;;13.36;58.11;100516.34;1764473;76;20999;-75
2021/06/01 07:08:05;;;;;;;5.87;2.20;;;;;;;13.34;58.39;100522.88;1855129;77;20922;-76
2021/06/01 07:10:36;;;;;;;7.28;2.37;;;;;;;13.33;58.80;100517.25;1854997;76;21039;-77
2021/06/01 07:13:10;;;;;;;;;;;;;;;13.39;58.78;100524.47;1857507;76;20938;-74
2021/06/01 07:15:41;;;;;;;5.08;3.27;;;;;;;13.46;58.62;100520.83;1822926;77;20126;-76
2021/06/01 07:18:09;;;;;;;10.85;3.42;;;;;;;13.49;57.73;100512.42;1853795;77;20998;-78
2021/06/01 07:20:36;;;;;;;5.37;3.30;;;;;;;13.48;57.64;100503.29;1854857;77;20969;-75
2021/06/01 07:23:02;;;;;;;6.65;3.00;;;;;;;13.40;57.65;100510.11;1854894;77;21085;-74
2021/06/01 07:25:29;;;;;;;7.67;2.60;;;;;;;13.34;57.78;100506.86;1854788;77;21016;-73
2021/06/01 07:27:56;;;;;;;12.18;4.62;;;;;;;13.27;57.48;100510.82;1844714;77;20985;-75
2021/06/01 07:30:22;;;;;;;11.33;5.75;;;;;;;13.22;57.39;100513.77;1843479;77;21026;-76
2021/06/01 07:32:50;;;;;;;10.50;3.72;;;;;;;13.16;57.48;100509.19;1843386;77;21606;-75
2021/06/01 07:35:16;;;;;;;9.53;3.85;;;;;;;13.18;57.65;100515.17;1843317;77;22067;-76
2021/06/01 07:37:45;;;;;;;6.10;3.02;;;;;;;13.21;57.16;100513.45;1842837;77;21633;-75
2021/06/01 07:40:12;;;;;;;6.25;2.50;;;;;;;13.23;57.21;100506.05;1842586;77;21531;-76
2021/06/01 07:42:38;;;;;;;5.42;2.52;;;;;;;13.18;57.31;100507.96;1842510;77;21060;-74
2021/06/01 07:45:06;;;;;;;7.47;2.27;;;;;;;13.13;58.19;100512.24;1842695;77;20986;-74
2021/06/01 07:47:33;;;;;;;7.05;2.02;;;;;;;13.10;58.32;100513.47;1842604;77;21677;-76
2021/06/01 07:50:00;;;;;;;6.60;2.20;;;;;;;13.12;58.02;100519.92;1842509;77;21550;-76
2021/06/01 07:52:29;;;;;;;12.45;2.60;;;;;;;13.18;58.65;100513.84;1842861;77;20997;-74
2021/06/01 07:54:56;;;;;;;10.63;3.27;;;;;;;13.29;58.59;100511.47;1819479;77;21034;-73
2021/06/01 07:57:22;;;;;;;12.37;3.40;;;;;;;13.38;57.78;100506.28;1842640;77;20942;-79
2021/06/01 07:59:49;;;;;;;12.60;6.83;;;;;;;13.42;57.53;100509.39;1842625;77;21034;-74
2021/06/01 08:02:16;;;;;;;8.50;2.85;;;;;;;13.42;57.23;100510.72;1842472;77;20982;-74
2021/06/01 08:04:42;;;;;;;10.95;3.58;;;;;;;13.45;56.99;100505.81;1842735;77;20997;-75
2021/06/01 08:07:20;;;;;;;7.05;3.35;;;;;;;13.53;57.24;100501.34;1842563;77;21060;-76
2021/06/01 08:09:48;;;;;;;19.23;3.92;;;;;;;13.66;57.39;100497.44;1818796;77;21006;-76
2021/06/01 08:12:16;;;;;;;10.30;4.67;;;;;;;13.80;57.09;100512.02;1842584;77;21092;-78
2021/06/01 08:14:43;;;;;;;10.00;4.45;;;;;;;13.87;56.59;100502.18;1842664;77;21037;-77
2021/06/01 08:17:11;;;;;;;8.30;4.42;;;;;;;13.92;56.16;100498.41;1842623;77;21474;-77
2021/06/01 08:19:41;;;;;;;7.67;3.33;;;;;;;13.96;55.65;100499.67;1842535;77;21511;-77
2021/06/01 08:22:14;;;;;;;11.68;4.40;;;;;;;13.97;55.21;100503.97;1842830;77;20970;-80
2021/06/01 08:24:39;;;;;;;6.75;2.87;;;;;;;13.92;54.84;100497.59;1842454;77;21083;-81
2021/06/01 08:27:06;;;;;;;6.70;3.77;;;;;;;13.89;54.87;100498.81;1845323;77;21580;-78
2021/06/01 08:29:32;;;;;;;7.95;4.12;;;;;;;13.85;54.89;100500.23;1851477;77;21271;-78
2021/06/01 08:31:59;;;;;;;11.80;3.27;;;;;;;13.81;55.00;100498.98;1851564;77;21099;-76
2021/06/01 08:34:25;;;;;;;10.53;2.65;;;;;;;13.78;54.96;100495.88;1851511;77;20966;-76
2021/06/01 08:36:53;;;;;;;9.28;3.55;;;;;;;13.73;55.15;100499.13;1851535;77;21607;-76
2021/06/01 08:39:24;;;;;;;7.28;2.62;;;;;;;13.71;55.35;100502.49;1851574;77;21081;-79
2021/06/01 08:41:50;;;;;;;9.35;4.60;;;;;;;13.73;55.51;100496.45;1851455;77;20966;-74
2021/06/01 08:44:18;;;;;;;14.55;4.40;;;;;;;13.73;55.43;100499.13;1851470;77;21531;-76
2021/06/01 08:46:49;;;;;;;8.93;5.00;;;;;;;13.72;55.50;100506.82;1851544;77;21561;-76
2021/06/01 08:49:13;;;;;;;13.13;3.70;;;;;;;13.72;55.26;100510.00;1851033;77;21476;-75
2021/06/01 08:51:40;;;;;;;8.10;3.87;;;;;;;13.70;55.09;100503.53;1851380;77;20859;-77
2021/06/01 08:54:06;;;;;;;20.92;4.67;;;;;;;13.70;54.92;100507.55;1851559;77;20903;-74
2021/06/01 08:56:33;;;;;;;9.73;4.45;;;;;;;13.73;55.18;100503.14;1851354;77;20954;-76
2021/06/01 08:59:00;;;;;;;8.70;3.00;;;;;;;13.74;55.28;100502.13;1851591;77;20949;-78
2021/06/01 09:01:26;;;;;;;10.85;2.50;;;;;;;13.79;56.02;100499.66;1851480;77;21491;-78
2021/06/01 09:03:58;;;;;;;6.22;2.47;;;;;;;13.85;55.16;100498.06;1851543;77;21530;-82
2021/06/01 09:07:01;;;;;;;4.08;2.33;;;;;;;13.85;54.96;100500.23;1851618;77;20943;-75
2021/06/01 09:22:54;;;;;;;6.90;2.30;;;;;;;13.95;54.45;100500.69;1851450;77;21558;-76
2021/06/01 09:28:05;;;;;;;9.98;2.33;;;;;;;13.97;53.72;100495.16;1829560;77;21847;-75
2021/06/01 09:30:51;;;;;;;5.60;2.58;;;;;;;13.97;53.98;100493.82;1815508;77;20905;-78
2021/06/01 09:33:23;;;;;;;5.25;2.95;;;;;;;13.96;53.55;100506.86;1815432;77;20973;-73
2021/06/01 09:35:55;;;;;;;9.53;4.00;;;;;;;13.96;53.57;100499.67;1815439;77;21458;-73
2021/06/01 09:38:40;;;;;;;6.33;2.92;;;;;;;13.98;53.18;100493.60;1805368;78;20973;-71
2021/06/01 09:41:11;;;;;;;8.35;3.58;;;;;;;14.03;53.06;100490.84;1792924;77;21677;-72
2021/06/01 09:43:57;;;;;;;6.87;2.83;;;;;;;14.09;52.96;100493.54;1781893;79;20881;-72
2021/06/01 09:46:27;;;;;;;10.15;3.67;;;;;;;14.14;53.22;100491.61;1787933;79;20984;-73
2021/06/01 09:48:56;;;;;;;9.53;3.20;;;;;;;14.21;53.37;100496.47;1789803;79;20966;-72
2021/06/01 09:51:31;;;;;;;10.48;3.25;;;;;;;14.25;53.12;100492.38;1788759;79;21032;-71
2021/06/01 09:54:34;;;;;;;7.80;2.98;;;;;;;14.22;53.11;100492.27;1739897;81;22369;-72
2021/06/01 09:57:16;;;;;;;7.92;3.33;;;;;;;14.18;53.48;100496.38;1737018;82;21018;-73
2021/06/01 10:00:15;;;;;;;17.20;5.78;;;;;;;14.18;54.11;100490.19;1757969;81;21096;-72
2021/06/01 10:02:52;;;;;;;10.80;4.28;;;;;;;14.31;53.79;100487.58;1702274;82;21051;-73
2021/06/01 10:05:26;;;;;;;18.50;4.03;;;;;;;14.42;53.21;100495.06;1812011;79;21065;-71
2021/06/01 10:07:55;;;;;;;18.65;9.83;;;;;;;14.49;52.92;100486.53;1808256;79;21403;-76
2021/06/01 10:10:31;;;;;;;24.12;7.33;;;;;;;14.51;52.38;100495.67;1811509;78;21025;-72
2021/06/01 10:13:01;;;;;;;8.70;5.35;;;;;;;14.55;51.86;100483.03;1802076;79;21080;-73
2021/06/01 10:15:29;;;;;;;9.93;5.00;;;;;;;14.66;51.46;100484.29;1810353;78;21078;-73
2021/06/01 10:17:57;;;;;;;13.58;6.87;;;;;;;14.78;50.49;100486.17;1798115;79;21066;-75
2021/06/01 10:20:27;;;;;;;15.20;7.83;;;;;;;14.93;50.52;100490.00;1807259;79;21032;-74
2021/06/01 10:22:55;;;;;;;8.28;4.28;;;;;;;15.01;50.36;100481.77;1783157;79;20992;-77
2021/06/01 10:25:25;;;;;;;15.58;5.90;;;;;;;15.09;50.74;100485.59;1794069;79;20986;-76
2021/06/01 10:27:52;;;;;;;18.32;4.90;;;;;;;15.19;49.55;100481.97;1801345;79;22308;-71
2021/06/01 10:30:21;;;;;;;12.18;6.55;;;;;;;15.44;49.17;100471.46;1781529;80;20962;-74
2021/06/01 10:32:52;;;;;;;11.85;5.00;;;;;;;15.84;48.71;100470.87;1781553;80;21122;-74
2021/06/01 10:35:22;;;;;;;9.25;4.40;;;;;;;16.20;48.06;100474.36;1764801;80;21445;-73
2021/06/01 10:52:05;;;;;;;5.37;2.37;;;;;;;17.48;44.43;100456.41;1801584;79;21105;-77
2021/06/01 10:54:48;;;;;;;9.48;3.37;;;;;;;17.41;44.40;100448.91;1743216;80;21141;-74
2021/06/01 10:57:20;;;;;;;16.05;4.78;;;;;;;17.49;43.73;100455.34;1744912;82;21006;-82
2021/06/01 11:02:31;;;;;;;10.43;3.22;;;;;;;17.39;44.91;100445.64;1744616;82;21014;-73
2021/06/01 11:05:10;;;;;;;19.90;3.05;;;;;;;17.21;44.55;100453.67;1716052;82;21507;-73
2021/06/01 11:07:58;;;;;;;14.58;2.50;;;;;;;17.00;45.52;100452.18;1729497;83;21140;-74
2021/06/01 11:10:47;;;;;;;12.60;3.25;;;;;;;16.83;45.83;100448.41;1699117;83;21062;-73
2021/06/01 11:13:29;;;;;;;9.28;2.25;;;;;;;16.81;45.42;100447.78;1814402;78;21068;-74
2021/06/01 11:15:59;;;;;;;6.37;3.00;;;;;;;16.82;45.66;100446.23;1760680;80;21063;-71
2021/06/01 11:18:42;;;;;;;10.18;4.65;;;;;;;16.82;45.31;100442.20;1749504;81;21049;-74
2021/06/01 11:22:00;;;;;;;10.82;3.15;;;;;;;16.77;45.39;100443.37;1744346;82;21504;-72
2021/06/01 11:32:56;;;;;;;12.80;2.55;;;;;;;16.15;47.52;100439.30;1770695;80;21010;-74
2021/06/01 11:35:32;;;;;;;11.18;3.42;;;;;;;16.13;47.53;100442.70;1774685;80;20963;-74
2021/06/01 11:43:11;;;;;;;11.65;3.52;;;;;;;15.94;47.62;100436.38;1762851;80;21045;-77
2021/06/01 11:51:23;;;;;;;10.23;5.12;;;;;;;15.88;47.34;100434.05;1760722;80;21044;-73
2021/06/01 11:54:03;;;;;;;14.65;4.00;;;;;;;15.83;47.45;100436.53;1760651;80;20997;-73
2021/06/01 12:19:00;;;;;;;14.15;5.53;;;;;;;15.82;47.63;100436.77;1810237;79;20956;-74
2021/06/01 12:21:35;;;;;;;13.00;5.10;;;;;;;15.88;47.65;100433.22;1812759;79;21078;-73
2021/06/01 12:24:13;;;;;;;9.45;4.05;;;;;;;15.96;47.25;100432.16;1813622;78;21087;-74
2021/06/01 12:32:28;;;;;;;10.48;3.95;;;;;;;16.12;47.56;100425.81;1822069;77;21540;-73
2021/06/01 12:35:10;;;;;;;11.88;4.80;;;;;;;16.12;48.07;100436.53;1825249;77;21112;-72
2021/06/01 13:20:44;;;;;;;12.00;3.92;;;;;;;16.17;47.29;100427.31;1760110;80;21066;-73
2021/06/01 13:40:36;;;;;;;11.05;5.37;;;;;;;15.76;47.65;100429.03;1747230;80;21033;-73
2021/06/01 13:46:00;;;;;;;14.33;5.80;;;;;;;15.85;48.17;100425.61;1696296;83;21079;-72
2021/06/01 13:48:57;;;;;;;12.68;3.80;;;;;;;15.88;47.78;100420.64;1781561;80;21046;-72
2021/06/01 13:56:35;;;;;;;12.85;3.12;;;;;;;15.83;47.51;100428.48;1783779;79;21025;-73
2021/06/01 14:09:55;;;;;;;;;;;;;;;15.49;48.80;100449.38;1792206;79;21089;-73
2021/06/01 14:31:51;;;;;;;8.95;3.80;;;;;;;15.24;48.25;100435.83;1840593;78;21144;-71
2021/06/01 14:40:16;;;;;;;16.42;3.50;;;;;;;15.12;49.13;100434.80;1840254;77;21024;-72
2021/06/01 15:10:33;;;;;;;12.13;5.20;;;;;;;14.71;50.09;100455.91;1783978;79;20920;-72
2021/06/01 15:51:04;;;;;;;12.88;6.58;;;;;;;14.14;51.32;100467.55;1756624;80;21033;-72
2021/06/01 15:53:41;;;;;;;20.55;8.60;;;;;;;14.08;51.29;100473.20;1817323;77;21089;-72
